SU8 weather

CLOSED Les Cèdres Water Aerodrome
Les Cèdres, Quebec, Canada

Public forecast

Using degrees Celsius for public forecast. Weather courtesy of forecast.io.

Closest aviation weather report (METAR) to Les Cèdres Water Aerodrome

Closest report is Montreal / Pierre Elliott Trudeau International Airport, 16.6 nm (30.8 km) NE. Retrieved 2020/05/25 20:00 UTC (2 minutes ago):

CYUL 252000Z 24008KT 15SM OVC031 22/15 A3007 RMK SC8 SLP183 DENSITY ALT 800FT

Closest aviation forecast (TAF) to Les Cèdres Water Aerodrome

Closest forecast is Montreal / Pierre Elliott Trudeau International Airport, 16.6 nm (30.8 km) NE. Retrieved 2020/05/25 18:48 UTC (1 hour ago):

TAF CYUL 251744Z 2518/2618 22007KT P6SM BKN030 FM252200 15007KT P6SM SCT040 TEMPO 2522/2524 BKN040 FM260200 04005KT P6SM FEW250 BECMG 2614/2616 22012KT RMK NXT FCST BY 252100Z